Time;durP1;ratioP1;P1;durP2;ratioP2;P2;SDS_P1;SDS_P2;PMS_P1;PMS_P2;Temp;Humidity;BMP_temperature;BMP_pressure;BME280_temperature;BME280_humidity;BME280_pressure;Samples;Min_cycle;Max_cycle;Signal;HPM_P1;HPM_P2
2022/10/11 00:00:32;;;;;;;5.10;3.80;;;11.40;99.90;;;;;;4930728;29;20060;-84
2022/10/11 00:02:58;;;;;;;;;;;11.40;99.90;;;;;;4931125;29;20036;-84
2022/10/11 00:05:24;;;;;;;7.80;5.32;;;11.40;99.90;;;;;;4929345;29;19915;-84
2022/10/11 00:07:50;;;;;;;4.25;3.58;;;11.30;99.90;;;;;;4930355;29;20115;-84
2022/10/11 00:10:17;;;;;;;15.38;3.65;;;11.30;99.90;;;;;;4929468;29;20028;-84
2022/10/11 00:12:43;;;;;;;8.85;4.38;;;11.30;99.90;;;;;;4929066;29;20028;-84
2022/10/11 00:15:12;;;;;;;4.57;3.00;;;11.30;99.90;;;;;;4929144;29;20064;-84
2022/10/11 00:17:38;;;;;;;;;;;11.30;99.90;;;;;;4929534;29;20113;-84
2022/10/11 00:20:04;;;;;;;9.68;3.55;;;11.30;99.90;;;;;;4929312;29;19915;-84
2022/10/11 00:22:30;;;;;;;3.97;2.85;;;11.20;99.90;;;;;;4930022;29;20036;-84
2022/10/11 00:24:57;;;;;;;2.95;2.42;;;11.20;99.90;;;;;;4929691;29;20034;-84
2022/10/11 00:27:23;;;;;;;3.33;2.70;;;11.20;99.90;;;;;;4913834;29;20040;-84
2022/10/11 00:29:49;;;;;;;5.95;2.92;;;11.20;99.90;;;;;;4913349;29;20032;-84
2022/10/11 00:32:15;;;;;;;8.85;3.40;;;11.20;99.90;;;;;;4913376;29;20397;-84
2022/10/11 00:34:40;;;;;;;3.35;2.65;;;11.10;99.90;;;;;;4929285;29;20032;-84
2022/10/11 00:37:06;;;;;;;1.98;1.77;;;11.10;99.90;;;;;;4930184;29;20032;-84
2022/10/11 00:39:32;;;;;;;2.92;2.63;;;11.10;99.90;;;;;;4930106;29;20060;-84
2022/10/11 00:41:58;;;;;;;4.75;2.15;;;11.10;99.90;;;;;;4927822;29;20393;-84
2022/10/11 00:44:26;;;;;;;8.02;2.55;;;11.10;99.90;;;;;;4913334;29;20096;-84
2022/10/11 00:47:02;;;;;;;5.95;2.95;;;11.10;99.90;;;;;;4909462;29;20395;-84
2022/10/11 00:49:57;;;;;;;9.30;2.28;;;11.00;99.90;;;;;;4909998;29;20032;-84
2022/10/11 00:52:33;;;;;;;4.68;3.63;;;11.00;99.90;;;;;;4905586;29;20040;-84
2022/10/11 00:55:04;;;;;;;3.22;2.92;;;11.00;99.90;;;;;;4909472;29;20115;-84
2022/10/11 00:57:33;;;;;;;3.53;2.45;;;11.00;99.90;;;;;;4910094;29;20065;-83
2022/10/11 01:00:00;;;;;;;10.90;4.50;;;11.00;99.90;;;;;;4926868;29;20032;-84
2022/10/11 01:02:26;;;;;;;2.97;2.67;;;11.00;99.90;;;;;;4928491;29;20036;-84
2022/10/11 01:04:53;;;;;;;6.35;4.70;;;11.00;99.90;;;;;;4929581;29;20072;-84
2022/10/11 01:07:19;;;;;;;10.43;2.97;;;11.00;99.90;;;;;;4929526;29;20036;-84
2022/10/11 01:09:45;;;;;;;3.58;3.28;;;11.00;99.90;;;;;;4929653;29;20035;-84
2022/10/11 01:12:17;;;;;;;7.75;2.70;;;10.90;99.90;;;;;;4928505;29;20442;-84
2022/10/11 01:15:08;;;;;;;10.02;3.30;;;10.90;99.90;;;;;;4913160;29;20064;-84
2022/10/11 01:18:06;;;;;;;9.10;3.45;;;10.90;99.90;;;;;;4909678;29;20075;-84
2022/10/11 01:20:50;;;;;;;8.18;3.47;;;10.90;99.90;;;;;;4910774;29;20061;-84
2022/10/11 01:23:40;;;;;;;3.85;3.30;;;10.80;99.90;;;;;;4927649;29;20483;-83
2022/10/11 01:26:05;;;;;;;;;;;10.90;99.90;;;;;;4928891;29;20036;-84
2022/10/11 01:28:56;;;;;;;3.65;2.95;;;10.90;99.90;;;;;;4916022;29;19911;-84
2022/10/11 01:31:34;;;;;;;;;;;10.80;99.90;;;;;;4898336;29;20032;-84
2022/10/11 01:34:16;;;;;;;7.47;3.35;;;10.80;99.90;;;;;;4912516;29;19945;-84
2022/10/11 01:37:03;;;;;;;2.95;2.42;;;10.80;99.90;;;;;;4914148;29;20477;-84
2022/10/11 01:39:35;;;;;;;4.28;3.58;;;10.80;99.90;;;;;;4912766;29;20375;-84
2022/10/11 01:42:04;;;;;;;6.93;3.33;;;10.70;99.90;;;;;;4900280;29;20033;-84
2022/10/11 01:44:30;;;;;;;13.43;3.50;;;10.70;99.90;;;;;;4919456;29;20624;-83
2022/10/11 01:46:56;;;;;;;3.63;3.33;;;10.70;99.90;;;;;;4934015;29;20040;-84
2022/10/11 01:49:22;;;;;;;4.68;3.45;;;10.70;99.90;;;;;;4933798;29;20119;-84
2022/10/11 01:51:52;;;;;;;5.10;3.78;;;10.70;99.90;;;;;;4917364;29;20032;-84
2022/10/11 01:54:36;;;;;;;4.22;2.47;;;10.70;99.90;;;;;;4933647;29;20028;-84
2022/10/11 01:57:20;;;;;;;4.78;2.72;;;10.60;99.90;;;;;;4933680;29;20083;-84
2022/10/11 01:59:57;;;;;;;4.28;3.97;;;10.60;99.90;;;;;;4931238;29;20043;-83
2022/10/11 02:02:31;;;;;;;3.10;2.60;;;10.60;99.90;;;;;;4913841;29;20032;-83
2022/10/11 02:05:13;;;;;;;5.57;3.20;;;10.60;99.90;;;;;;4913166;29;20053;-83
2022/10/11 02:07:44;;;;;;;5.22;2.80;;;10.60;99.90;;;;;;4912510;29;20037;-83
2022/10/11 02:10:32;;;;;;;2.30;1.95;;;10.50;99.90;;;;;;4914178;29;20455;-84
2022/10/11 02:13:15;;;;;;;2.20;1.80;;;10.50;99.90;;;;;;4914170;29;20390;-84
2022/10/11 02:15:43;;;;;;;4.15;2.22;;;10.50;99.90;;;;;;4925419;29;20096;-83
2022/10/11 02:18:15;;;;;;;1.88;1.77;;;10.40;99.90;;;;;;4933759;29;20055;-84
2022/10/11 02:20:42;;;;;;;2.63;2.42;;;10.40;99.90;;;;;;4937432;29;20038;-84
2022/10/11 02:23:14;;;;;;;4.80;2.72;;;10.40;99.90;;;;;;4931557;29;20040;-84
2022/10/11 02:25:41;;;;;;;2.25;1.60;;;10.40;99.90;;;;;;4932491;29;20060;-84
2022/10/11 02:28:12;;;;;;;3.13;1.90;;;10.40;99.90;;;;;;4932029;29;20056;-83
2022/10/11 02:30:40;;;;;;;4.28;2.67;;;10.40;99.90;;;;;;4929166;29;20028;-84
2022/10/11 02:33:10;;;;;;;2.85;2.65;;;10.40;99.90;;;;;;4913146;29;20032;-84
2022/10/11 02:35:41;;;;;;;2.70;2.40;;;10.30;99.90;;;;;;4912200;29;20031;-84
2022/10/11 02:38:31;;;;;;;4.03;2.35;;;10.40;99.90;;;;;;4915100;29;20049;-84
2022/10/11 02:41:39;;;;;;;3.70;2.53;;;10.30;99.90;;;;;;4923519;29;20116;-83
2022/10/11 02:44:36;;;;;;;6.93;2.35;;;10.30;99.90;;;;;;4932745;29;20036;-84
2022/10/11 02:47:03;;;;;;;6.10;2.40;;;10.30;99.90;;;;;;4927250;29;20055;-84
2022/10/11 02:49:29;;;;;;;3.78;2.58;;;10.30;99.90;;;;;;4930867;29;20099;-84
2022/10/11 02:51:56;;;;;;;5.10;3.70;;;10.30;99.90;;;;;;4930643;29;20024;-83
2022/10/11 02:54:23;;;;;;;5.38;2.83;;;10.30;99.90;;;;;;4931654;29;20087;-84
2022/10/11 02:56:49;;;;;;;4.20;2.60;;;10.30;99.90;;;;;;4930405;29;20035;-84
2022/10/11 02:59:15;;;;;;;3.33;2.58;;;10.30;99.90;;;;;;4930469;29;20036;-84
2022/10/11 03:01:40;;;;;;;4.53;3.67;;;10.20;99.90;;;;;;4930772;29;20032;-84
2022/10/11 03:04:06;;;;;;;2.60;2.45;;;10.60;99.90;;;;;;4914477;29;20051;-84
2022/10/11 03:06:32;;;;;;;3.50;3.13;;;10.20;99.90;;;;;;4930835;29;20040;-84
2022/10/11 03:08:58;;;;;;;4.70;4.28;;;10.30;99.90;;;;;;4914350;29;20075;-84
2022/10/11 03:11:23;;;;;;;4.50;3.15;;;10.20;99.90;;;;;;4931358;29;20020;-83
2022/10/11 03:13:49;;;;;;;5.05;3.60;;;10.20;99.90;;;;;;4931396;29;20032;-84
2022/10/11 03:16:15;;;;;;;4.75;3.30;;;10.30;99.90;;;;;;4930037;29;20088;-84
2022/10/11 03:18:41;;;;;;;6.13;2.90;;;10.20;99.90;;;;;;4930134;29;20025;-84
2022/10/11 03:21:06;;;;;;;4.78;4.15;;;10.10;99.90;;;;;;4930094;29;20404;-84
2022/10/11 03:23:32;;;;;;;4.00;3.28;;;10.10;99.90;;;;;;4915589;29;20067;-83
2022/10/11 03:25:58;;;;;;;6.65;3.67;;;10.10;99.90;;;;;;4929910;29;20028;-83
2022/10/11 03:28:24;;;;;;;2.55;2.35;;;10.10;99.90;;;;;;4931507;29;20067;-84
2022/10/11 03:30:50;;;;;;;7.45;2.97;;;10.10;99.90;;;;;;4931236;29;20020;-84
2022/10/11 03:33:17;;;;;;;5.55;4.07;;;10.00;99.90;;;;;;4930195;29;20032;-83
2022/10/11 03:35:49;;;;;;;8.43;2.50;;;10.00;99.90;;;;;;4930350;29;20065;-84
2022/10/11 03:38:17;;;;;;;3.53;2.67;;;10.00;99.90;;;;;;4930094;29;20048;-84
2022/10/11 03:40:43;;;;;;;6.03;3.08;;;10.00;99.90;;;;;;4919799;29;20021;-84
2022/10/11 03:43:10;;;;;;;8.48;3.58;;;10.00;99.90;;;;;;4912048;29;20036;-84
2022/10/11 03:45:36;;;;;;;3.10;2.88;;;10.00;99.90;;;;;;4912007;29;20047;-84
2022/10/11 03:48:02;;;;;;;3.50;2.85;;;9.90;99.90;;;;;;4910771;29;20041;-83
2022/10/11 03:50:29;;;;;;;11.32;4.03;;;9.90;99.90;;;;;;4910833;29;20032;-84
2022/10/11 03:52:54;;;;;;;5.25;3.22;;;10.00;99.90;;;;;;4912010;29;20036;-84
2022/10/11 03:55:20;;;;;;;6.78;3.63;;;9.90;99.90;;;;;;4919624;29;20032;-84
2022/10/11 03:57:46;;;;;;;5.20;2.92;;;10.40;99.90;;;;;;4911845;29;20036;-83
2022/10/11 04:00:12;;;;;;;3.60;3.05;;;9.80;99.90;;;;;;4910556;29;20080;-84
2022/10/11 04:02:37;;;;;;;3.42;3.13;;;9.80;99.90;;;;;;4911370;29;20040;-84
2022/10/11 04:05:05;;;;;;;3.72;2.72;;;9.80;99.90;;;;;;4910124;29;20059;-83
2022/10/11 04:07:31;;;;;;;4.22;2.33;;;9.90;99.90;;;;;;4910368;29;20550;-83
2022/10/11 04:09:57;;;;;;;3.25;2.42;;;9.80;99.90;;;;;;4912169;29;20028;-83
2022/10/11 04:12:23;;;;;;;5.25;2.50;;;9.80;99.90;;;;;;4916007;29;20056;-83
2022/10/11 04:14:49;;;;;;;3.50;2.75;;;9.80;99.90;;;;;;4916577;29;20032;-83
2022/10/11 04:17:15;;;;;;;2.53;2.33;;;9.80;99.90;;;;;;4931986;29;20109;-84
2022/10/11 04:19:41;;;;;;;10.57;2.78;;;9.80;99.90;;;;;;4930870;29;20064;-83
2022/10/11 04:22:07;;;;;;;7.53;3.15;;;9.70;99.90;;;;;;4930594;29;20040;-84
2022/10/11 04:24:33;;;;;;;8.38;2.95;;;9.70;99.90;;;;;;4930622;29;20034;-84
2022/10/11 04:26:58;;;;;;;3.08;2.70;;;9.70;99.90;;;;;;4930172;29;20055;-84
2022/10/11 04:29:24;;;;;;;3.22;2.30;;;9.70;99.90;;;;;;4930225;29;20028;-83
2022/10/11 04:31:50;;;;;;;4.45;3.58;;;9.70;99.90;;;;;;4931828;29;20024;-84
2022/10/11 04:34:16;;;;;;;5.22;2.92;;;9.80;99.90;;;;;;4914238;29;20119;-83
2022/10/11 04:36:42;;;;;;;3.58;2.45;;;9.60;99.90;;;;;;4930180;29;20028;-84
2022/10/11 04:39:08;;;;;;;2.88;2.67;;;9.60;99.90;;;;;;4930904;29;20698;-83
2022/10/11 04:41:34;;;;;;;7.20;3.28;;;9.60;99.90;;;;;;4928992;29;20490;-83
2022/10/11 04:44:01;;;;;;;5.40;3.70;;;9.60;99.90;;;;;;4929023;29;20040;-83
2022/10/11 04:46:27;;;;;;;2.27;1.90;;;9.60;99.90;;;;;;4914870;29;20031;-83
2022/10/11 04:48:54;;;;;;;4.35;2.78;;;9.60;99.90;;;;;;4925736;29;20040;-83
2022/10/11 04:51:20;;;;;;;2.60;2.42;;;9.50;99.90;;;;;;4894064;29;20081;-83
2022/10/11 04:53:47;;;;;;;4.35;3.28;;;9.80;99.90;;;;;;4910813;29;20051;-83
2022/10/11 04:56:17;;;;;;;2.35;2.15;;;9.50;99.90;;;;;;4916074;29;20031;-83
2022/10/11 04:58:43;;;;;;;5.90;2.40;;;9.50;99.90;;;;;;4925902;29;20052;-83
2022/10/11 05:01:10;;;;;;;4.63;2.83;;;9.50;99.90;;;;;;4908264;29;20454;-83
2022/10/11 05:03:36;;;;;;;3.92;2.90;;;9.50;99.90;;;;;;4909354;29;20105;-83
2022/10/11 05:06:03;;;;;;;4.88;3.03;;;9.40;99.90;;;;;;4912558;29;20047;-83
2022/10/11 05:08:29;;;;;;;7.00;4.35;;;9.40;99.90;;;;;;4897103;29;20055;-83
2022/10/11 05:11:05;;;;;;;7.05;3.55;;;9.40;99.90;;;;;;4912888;29;20028;-84
2022/10/11 05:13:32;;;;;;;11.52;6.10;;;9.40;99.90;;;;;;4912209;29;20385;-84
2022/10/11 05:15:58;;;;;;;6.30;5.63;;;9.40;99.90;;;;;;4921415;29;20036;-83
2022/10/11 05:18:27;;;;;;;9.77;6.68;;;9.40;99.90;;;;;;4916471;29;20103;-84
2022/10/11 05:21:05;;;;;;;12.10;7.68;;;9.40;99.90;;;;;;4931859;29;20079;-83
2022/10/11 05:23:32;;;;;;;14.93;6.55;;;9.30;99.90;;;;;;4915309;29;20083;-85
2022/10/11 05:25:58;;;;;;;9.13;5.70;;;9.40;99.90;;;;;;4926792;29;20029;-85
2022/10/11 05:28:25;;;;;;;10.75;4.95;;;9.30;99.90;;;;;;4908871;29;20036;-85
2022/10/11 05:30:51;;;;;;;5.88;5.32;;;9.30;99.90;;;;;;4915596;29;20021;-84
2022/10/11 05:33:17;;;;;;;5.18;4.57;;;9.30;99.90;;;;;;4931321;29;20028;-85
2022/10/11 05:35:43;;;;;;;8.10;4.97;;;9.20;99.90;;;;;;4915512;29;20097;-84
2022/10/11 05:38:10;;;;;;;4.63;3.80;;;9.20;99.90;;;;;;4931874;29;20028;-84
2022/10/11 05:40:36;;;;;;;4.30;3.90;;;9.20;99.90;;;;;;4931092;29;20031;-84
2022/10/11 05:43:03;;;;;;;4.03;2.70;;;9.20;99.90;;;;;;4915117;29;20032;-84
2022/10/11 05:45:29;;;;;;;4.72;3.88;;;9.10;99.90;;;;;;4921192;29;20033;-84
2022/10/11 05:47:55;;;;;;;4.50;4.10;;;9.10;99.90;;;;;;4925309;29;20056;-84
2022/10/11 05:50:21;;;;;;;8.05;4.47;;;9.10;99.90;;;;;;4921835;29;20048;-84
2022/10/11 05:52:47;;;;;;;6.10;4.07;;;9.10;99.90;;;;;;4930896;29;20119;-84
2022/10/11 05:55:13;;;;;;;7.05;3.85;;;9.10;99.90;;;;;;4911251;29;20024;-84
2022/10/11 05:57:38;;;;;;;8.27;4.47;;;9.00;99.90;;;;;;4898368;29;20032;-84
2022/10/11 06:00:05;;;;;;;3.67;3.30;;;9.10;99.90;;;;;;4929151;29;20028;-84
2022/10/11 06:02:37;;;;;;;3.67;2.85;;;9.10;99.90;;;;;;4915048;29;20450;-84
2022/10/11 06:05:03;;;;;;;5.93;3.45;;;9.00;99.90;;;;;;4918077;29;20044;-84
2022/10/11 06:07:29;;;;;;;5.82;3.58;;;9.00;99.90;;;;;;4930712;29;20044;-84
2022/10/11 06:09:55;;;;;;;3.60;3.05;;;9.00;99.90;;;;;;4914827;29;20482;-84
2022/10/11 06:12:21;;;;;;;4.07;3.53;;;9.10;99.90;;;;;;4930787;29;20025;-84
2022/10/11 06:14:47;;;;;;;3.80;3.08;;;9.00;99.90;;;;;;4895822;29;20054;-84
2022/10/11 06:17:13;;;;;;;5.18;3.22;;;9.00;99.90;;;;;;4928718;29;20055;-83
2022/10/11 06:19:38;;;;;;;7.65;4.47;;;9.00;99.90;;;;;;4903791;29;20036;-84
2022/10/11 06:22:04;;;;;;;3.42;2.70;;;10.90;99.90;;;;;;4921775;29;20048;-84
2022/10/11 06:24:30;;;;;;;5.50;4.50;;;9.00;99.90;;;;;;4918105;29;20051;-84
2022/10/11 06:26:56;;;;;;;4.22;3.85;;;8.90;99.90;;;;;;4916652;29;20083;-84
2022/10/11 06:29:21;;;;;;;3.88;3.58;;;8.90;99.90;;;;;;4921484;29;20036;-84
2022/10/11 06:31:48;;;;;;;6.60;4.18;;;8.90;99.90;;;;;;4900911;29;20028;-84
2022/10/11 06:34:14;;;;;;;3.40;2.88;;;8.90;99.90;;;;;;4900299;29;20029;-84
2022/10/11 06:36:40;;;;;;;3.97;3.30;;;8.90;99.90;;;;;;4914418;29;20035;-84
2022/10/11 06:39:06;;;;;;;4.90;3.63;;;10.30;99.90;;;;;;4918230;29;20120;-84
2022/10/11 06:41:32;;;;;;;4.50;3.53;;;8.90;99.90;;;;;;4924521;29;20108;-84
2022/10/11 06:43:58;;;;;;;5.55;4.18;;;8.90;99.90;;;;;;4908942;29;20445;-84
2022/10/11 06:46:26;;;;;;;6.35;5.18;;;8.90;99.90;;;;;;4902273;29;20024;-84
2022/10/11 06:48:52;;;;;;;11.05;7.30;;;9.40;99.90;;;;;;4925692;29;20032;-83
2022/10/11 06:51:20;;;;;;;14.25;9.43;;;9.00;99.90;;;;;;4931165;29;20059;-84
2022/10/11 06:53:50;;;;;;;9.70;7.93;;;9.00;99.90;;;;;;4931242;29;20080;-84
2022/10/11 06:56:17;;;;;;;16.02;10.45;;;9.00;99.90;;;;;;4924932;29;20069;-84
2022/10/11 06:58:47;;;;;;;12.82;9.25;;;9.00;99.90;;;;;;4923228;29;20042;-85
2022/10/11 07:01:19;;;;;;;13.02;10.60;;;9.00;99.90;;;;;;4946165;29;20043;-86
2022/10/11 07:03:45;;;;;;;11.60;9.40;;;9.00;99.90;;;;;;4929584;29;20055;-86
2022/10/11 07:06:14;;;;;;;9.55;8.15;;;9.00;99.90;;;;;;4920249;29;20394;-86
2022/10/11 07:08:40;;;;;;;7.18;6.47;;;9.00;99.90;;;;;;4918833;29;20036;-87
2022/10/11 07:11:11;;;;;;;6.68;6.15;;;9.10;99.90;;;;;;4927329;29;20062;-86
2022/10/11 07:13:38;;;;;;;7.57;6.75;;;9.00;99.90;;;;;;4920737;29;20040;-87
2022/10/11 07:16:06;;;;;;;8.52;7.22;;;9.10;99.90;;;;;;4914278;29;20023;-87
2022/10/11 07:18:32;;;;;;;6.00;5.47;;;9.10;99.90;;;;;;4929724;29;20060;-86
2022/10/11 07:21:02;;;;;;;4.93;4.43;;;9.10;99.90;;;;;;4930820;29;20028;-87
2022/10/11 07:23:28;;;;;;;14.35;5.80;;;9.10;99.90;;;;;;4931030;29;20040;-86
2022/10/11 07:25:54;;;;;;;6.97;6.13;;;9.20;99.90;;;;;;4931031;29;20039;-86
2022/10/11 07:28:20;;;;;;;8.73;6.13;;;9.10;99.90;;;;;;4912299;29;20056;-87
2022/10/11 07:30:47;;;;;;;7.57;6.85;;;9.20;99.90;;;;;;4929064;29;20060;-87
2022/10/11 07:33:12;;;;;;;7.88;6.15;;;9.20;99.90;;;;;;4930921;29;20028;-86
2022/10/11 07:35:38;;;;;;;15.85;8.63;;;9.50;99.90;;;;;;4929556;29;20056;-87
2022/10/11 07:38:05;;;;;;;12.32;9.68;;;9.20;99.90;;;;;;4929158;29;20410;-87
2022/10/11 07:40:32;;;;;;;13.50;12.13;;;9.20;99.90;;;;;;4930794;29;20064;-86
2022/10/11 07:42:59;;;;;;;22.80;13.65;;;9.30;99.90;;;;;;4930316;29;20136;-87
2022/10/11 07:45:29;;;;;;;23.48;15.95;;;9.30;99.90;;;;;;4913839;29;20401;-87
2022/10/11 07:47:55;;;;;;;16.33;12.32;;;9.30;99.90;;;;;;4913395;29;20028;-86
2022/10/11 07:50:21;;;;;;;24.73;13.23;;;9.30;99.90;;;;;;4942643;29;20090;-87
2022/10/11 07:52:47;;;;;;;18.85;15.23;;;9.30;99.90;;;;;;4930612;29;20102;-86
2022/10/11 07:55:13;;;;;;;13.20;10.98;;;9.60;99.90;;;;;;4926126;29;20036;-86
2022/10/11 07:57:39;;;;;;;17.08;11.23;;;9.40;99.90;;;;;;4923072;29;20024;-87
2022/10/11 08:00:05;;;;;;;10.68;9.63;;;9.40;99.90;;;;;;4930520;29;20039;-87
2022/10/11 08:02:37;;;;;;;24.45;9.60;;;9.40;99.90;;;;;;4929308;29;20063;-87
2022/10/11 08:05:03;;;;;;;12.93;10.38;;;9.50;99.90;;;;;;4930038;29;20063;-87
2022/10/11 08:07:29;;;;;;;10.48;7.72;;;9.50;99.90;;;;;;4928794;29;20068;-87
2022/10/11 08:09:55;;;;;;;15.10;7.72;;;9.50;99.90;;;;;;4928622;29;20032;-88
2022/10/11 08:12:21;;;;;;;9.52;8.50;;;9.60;99.90;;;;;;4923041;29;20065;-87
2022/10/11 08:14:47;;;;;;;16.30;9.77;;;9.60;99.90;;;;;;4926835;29;20032;-86
2022/10/11 08:17:13;;;;;;;13.25;7.55;;;9.60;99.90;;;;;;4928943;29;20051;-87
2022/10/11 08:19:39;;;;;;;8.50;7.45;;;9.60;99.90;;;;;;4928604;29;20040;-87
2022/10/11 08:22:05;;;;;;;12.02;8.60;;;9.70;99.90;;;;;;4928498;29;20096;-87
2022/10/11 08:24:31;;;;;;;11.25;7.15;;;9.70;99.90;;;;;;4922950;29;20032;-88
2022/10/11 08:26:57;;;;;;;10.38;7.07;;;9.70;99.90;;;;;;4925514;29;20089;-88
2022/10/11 08:29:22;;;;;;;7.53;6.45;;;9.80;99.90;;;;;;4911184;29;20479;-87
2022/10/11 08:31:48;;;;;;;6.25;5.65;;;9.80;99.90;;;;;;4910934;29;20029;-86
2022/10/11 08:34:14;;;;;;;12.63;6.70;;;9.80;99.90;;;;;;4913332;29;20052;-88
2022/10/11 08:36:40;;;;;;;9.48;6.70;;;9.90;99.90;;;;;;4905859;29;20032;-87
2022/10/11 08:39:07;;;;;;;8.10;6.13;;;9.90;99.90;;;;;;4926548;29;20028;-87
2022/10/11 08:41:53;;;;;;;8.13;5.93;;;9.90;99.90;;;;;;4928007;29;20379;-86
2022/10/11 08:44:37;;;;;;;8.73;6.45;;;10.00;99.90;;;;;;4924923;29;20020;-87
2022/10/11 08:47:20;;;;;;;9.75;5.00;;;10.10;99.90;;;;;;4909450;29;20113;-87
2022/10/11 08:49:46;;;;;;;10.02;5.82;;;10.10;99.90;;;;;;4911202;29;20032;-87
2022/10/11 08:52:20;;;;;;;7.47;6.78;;;10.20;99.90;;;;;;4929626;29;20051;-87
2022/10/11 08:54:59;;;;;;;11.15;6.03;;;10.20;99.90;;;;;;4911731;29;20373;-87
2022/10/11 08:57:28;;;;;;;7.80;5.05;;;10.70;99.90;;;;;;4928153;29;20118;-87
2022/10/11 09:00:06;;;;;;;5.82;5.20;;;10.40;99.90;;;;;;4922891;29;20045;-88
2022/10/11 09:02:53;;;;;;;5.40;4.75;;;10.50;99.90;;;;;;4910954;29;20471;-87
2022/10/11 09:05:20;;;;;;;9.05;4.72;;;10.60;99.90;;;;;;4924920;29;20079;-88
2022/10/11 09:08:09;;;;;;;6.22;3.83;;;10.60;99.90;;;;;;4909208;29;20071;-88
2022/10/11 09:10:51;;;;;;;7.72;6.10;;;10.70;99.90;;;;;;4904183;29;20127;-88
2022/10/11 09:13:34;;;;;;;4.80;4.40;;;10.80;99.90;;;;;;4910488;29;20036;-88
2022/10/11 09:16:21;;;;;;;9.25;4.10;;;10.90;99.90;;;;;;4925100;29;20028;-89
2022/10/11 09:19:18;;;;;;;12.23;4.32;;;11.00;99.90;;;;;;4914452;29;20043;-88
2022/10/11 09:22:09;;;;;;;9.00;3.35;;;11.10;99.90;;;;;;4912467;29;20036;-88
2022/10/11 09:24:56;;;;;;;8.18;4.97;;;11.20;99.90;;;;;;4927053;29;20032;-89
2022/10/11 09:27:30;;;;;;;8.50;3.72;;;11.30;99.90;;;;;;4920773;29;20040;-88
2022/10/11 09:30:10;;;;;;;11.65;5.10;;;11.40;99.90;;;;;;4913922;29;20033;-89
2022/10/11 09:32:41;;;;;;;8.93;4.80;;;11.50;99.90;;;;;;4910435;29;20065;-90
2022/10/11 09:35:13;;;;;;;6.38;4.07;;;11.50;99.90;;;;;;4909155;29;20044;-88
2022/10/11 09:37:53;;;;;;;9.27;4.18;;;11.60;99.90;;;;;;4911351;29;20032;-88
2022/10/11 09:40:30;;;;;;;6.65;2.97;;;11.70;99.90;;;;;;4915314;29;20040;-88
2022/10/11 09:42:58;;;;;;;7.82;4.50;;;11.90;99.90;;;;;;4919626;29;20036;-88
2022/10/11 09:45:24;;;;;;;7.50;2.65;;;12.00;99.90;;;;;;4931055;29;20028;-89
2022/10/11 09:47:52;;;;;;;15.43;3.67;;;12.00;99.90;;;;;;4928125;29;20036;-89
2022/10/11 09:50:25;;;;;;;10.65;2.42;;;12.00;99.90;;;;;;4928559;29;20033;-88
2022/10/11 09:52:53;;;;;;;7.78;2.17;;;12.00;99.90;;;;;;4911835;29;20036;-89
2022/10/11 09:55:45;;;;;;;7.05;2.40;;;12.10;99.90;;;;;;4924002;29;20024;-89
2022/10/11 09:58:30;;;;;;;5.20;2.45;;;12.20;99.90;;;;;;4893098;29;20491;-89
2022/10/11 10:01:03;;;;;;;3.28;1.67;;;12.30;99.90;;;;;;4942629;29;20032;-87
2022/10/11 10:03:32;;;;;;;5.05;1.95;;;12.30;99.90;;;;;;4910309;29;20036;-89
2022/10/11 10:06:24;;;;;;;4.90;2.47;;;12.40;99.90;;;;;;4921876;29;20039;-89
2022/10/11 10:08:50;;;;;;;5.15;1.90;;;12.50;99.90;;;;;;4930746;29;20139;-86
2022/10/11 10:11:17;;;;;;;4.82;2.78;;;12.50;99.90;;;;;;4931781;29;20047;-86
2022/10/11 10:13:52;;;;;;;12.30;2.13;;;12.60;99.90;;;;;;4933663;29;20016;-86
2022/10/11 10:16:27;;;;;;;2.55;1.58;;;12.70;99.90;;;;;;4919137;29;20032;-86
2022/10/11 10:19:02;;;;;;;5.22;1.40;;;12.90;99.90;;;;;;4930590;29;20036;-86
2022/10/11 10:21:36;;;;;;;5.05;1.92;;;12.90;99.90;;;;;;4918093;29;20033;-86
2022/10/11 10:24:16;;;;;;;7.72;1.90;;;12.90;99.90;;;;;;4922033;29;20043;-86
2022/10/11 10:27:01;;;;;;;4.63;2.40;;;13.00;99.90;;;;;;4918708;29;20036;-86
2022/10/11 10:29:27;;;;;;;6.07;2.28;;;13.10;99.90;;;;;;4929189;29;20035;-86
2022/10/11 10:31:55;;;;;;;7.00;2.45;;;13.20;99.90;;;;;;4928021;29;20040;-86
2022/10/11 10:34:34;;;;;;;4.43;1.48;;;13.20;99.90;;;;;;4914281;29;20036;-86
2022/10/11 10:37:19;;;;;;;11.70;3.03;;;13.20;99.90;;;;;;4931408;29;20142;-86
2022/10/11 10:40:11;;;;;;;1.80;1.00;;;13.30;99.90;;;;;;4932223;29;20043;-86
2022/10/11 10:42:37;;;;;;;6.93;1.17;;;13.40;99.90;;;;;;4920403;29;20037;-87
2022/10/11 10:45:04;;;;;;;7.63;1.65;;;13.50;99.90;;;;;;4922762;29;20040;-86
2022/10/11 10:47:30;;;;;;;2.67;1.35;;;13.50;99.90;;;;;;4931690;29;20400;-86
2022/10/11 10:50:07;;;;;;;5.60;1.73;;;13.50;99.90;;;;;;4919272;29;20032;-87
2022/10/11 10:52:47;;;;;;;3.58;2.08;;;13.50;99.90;;;;;;4928844;29;20055;-86
2022/10/11 10:55:41;;;;;;;8.65;1.85;;;13.50;99.90;;;;;;4933123;29;20055;-86
2022/10/11 10:58:30;;;;;;;4.63;1.77;;;13.50;99.90;;;;;;4914934;29;20100;-87
2022/10/11 11:01:27;;;;;;;3.15;1.58;;;13.60;99.90;;;;;;4925666;29;20104;-86
2022/10/11 11:04:09;;;;;;;9.13;1.55;;;13.60;99.90;;;;;;4922254;29;20036;-86
2022/10/11 11:06:49;;;;;;;4.93;1.65;;;13.70;99.90;;;;;;4929060;29;20067;-87
2022/10/11 11:09:40;;;;;;;8.00;2.03;;;13.70;99.90;;;;;;4931279;29;20068;-87
2022/10/11 11:12:16;;;;;;;3.38;1.60;;;13.70;99.90;;;;;;4925376;29;20029;-86
2022/10/11 11:14:50;;;;;;;7.35;2.08;;;13.80;99.90;;;;;;4930436;29;20112;-86
2022/10/11 11:17:24;;;;;;;5.85;2.25;;;13.70;99.90;;;;;;4932877;29;20430;-87
2022/10/11 11:20:14;;;;;;;4.18;1.92;;;13.70;99.90;;;;;;4932086;29;20028;-86
2022/10/11 11:22:59;;;;;;;4.47;1.45;;;13.80;99.90;;;;;;4934092;29;20060;-87
2022/10/11 11:25:49;;;;;;;5.68;1.88;;;13.80;99.90;;;;;;4940273;29;20032;-87
2022/10/11 11:28:34;;;;;;;1.58;1.23;;;13.90;99.90;;;;;;4930081;29;20035;-86
2022/10/11 11:31:05;;;;;;;4.05;1.30;;;14.00;99.90;;;;;;4915432;29;20033;-87
2022/10/11 11:33:37;;;;;;;7.60;1.35;;;14.10;99.90;;;;;;4933622;29;20032;-87
2022/10/11 11:36:13;;;;;;;5.43;1.73;;;14.20;99.90;;;;;;4933232;29;20061;-86
2022/10/11 11:38:51;;;;;;;9.57;2.90;;;14.20;99.90;;;;;;4933332;29;20084;-87
2022/10/11 11:41:24;;;;;;;2.53;1.70;;;14.30;99.90;;;;;;4917690;29;20041;-87
2022/10/11 11:43:59;;;;;;;3.72;1.40;;;14.40;99.90;;;;;;4929526;29;20560;-87
2022/10/11 11:46:34;;;;;;;1.48;1.30;;;14.40;99.90;;;;;;4932899;29;20044;-87
2022/10/11 11:49:11;;;;;;;2.95;1.23;;;14.50;99.90;;;;;;4932946;29;20032;-86
2022/10/11 11:51:46;;;;;;;16.30;2.88;;;14.60;99.90;;;;;;4921434;29;20056;-86
2022/10/11 11:54:21;;;;;;;4.32;1.55;;;14.60;99.90;;;;;;4927289;29;20024;-88
2022/10/11 11:57:21;;;;;;;6.35;1.70;;;14.70;99.90;;;;;;4921869;29;20028;-89
2022/10/11 11:59:55;;;;;;;6.45;1.73;;;14.80;99.90;;;;;;4930839;29;20051;-89
2022/10/11 12:02:36;;;;;;;6.43;1.67;;;14.80;99.90;;;;;;4930571;29;20028;-88
2022/10/11 12:05:07;;;;;;;7.28;2.63;;;14.90;99.90;;;;;;4912142;29;20052;-89
2022/10/11 12:07:56;;;;;;;5.50;1.42;;;15.00;99.90;;;;;;4910166;29;20036;-89
2022/10/11 12:10:30;;;;;;;4.60;0.88;;;15.00;99.90;;;;;;4911473;29;20035;-87
2022/10/11 12:13:05;;;;;;;1.77;1.48;;;15.10;99.90;;;;;;4929571;29;20028;-89
2022/10/11 12:15:31;;;;;;;4.03;0.90;;;;;;;;;;4928890;29;20056;-89
2022/10/11 12:18:15;;;;;;;5.93;1.75;;;15.30;99.90;;;;;;4930178;29;20028;-88
2022/10/11 12:20:42;;;;;;;4.63;2.17;;;15.40;99.90;;;;;;4928845;29;20031;-89
2022/10/11 12:23:27;;;;;;;3.00;1.50;;;15.40;99.90;;;;;;4928160;29;20036;-88
2022/10/11 12:26:38;;;;;;;2.20;1.27;;;15.40;99.90;;;;;;4925133;29;20080;-89
2022/10/11 12:29:23;;;;;;;4.80;1.15;;;15.40;99.90;;;;;;4908917;29;20133;-88
2022/10/11 12:32:10;;;;;;;3.92;2.28;;;15.40;99.90;;;;;;4925455;29;20402;-89
2022/10/11 12:34:38;;;;;;;7.28;2.20;;;15.50;99.90;;;;;;4928083;29;20032;-88
2022/10/11 12:37:19;;;;;;;3.58;1.50;;;15.60;99.90;;;;;;4913017;29;20028;-89
2022/10/11 12:39:49;;;;;;;3.05;1.02;;;15.60;99.90;;;;;;4929852;29;20028;-89
2022/10/11 12:42:30;;;;;;;;;;;15.80;99.90;;;;;;4932462;29;20028;-89
2022/10/11 12:45:22;;;;;;;5.18;1.75;;;15.90;99.90;;;;;;4929663;29;19915;-89
2022/10/11 12:48:15;;;;;;;3.85;1.85;;;16.00;99.90;;;;;;4907882;29;20402;-89
2022/10/11 12:50:47;;;;;;;6.20;1.77;;;16.00;99.90;;;;;;4910867;29;20471;-89
2022/10/11 12:53:45;;;;;;;4.43;1.80;;;15.90;99.90;;;;;;4910684;29;20032;-88
2022/10/11 12:56:11;;;;;;;5.53;2.35;;;;;;;;;;4916493;29;20059;-89
2022/10/11 12:58:41;;;;;;;5.78;1.20;;;15.90;99.90;;;;;;4913537;29;20048;-89
2022/10/11 13:01:21;;;;;;;4.88;1.40;;;15.90;99.90;;;;;;4910547;29;20065;-89
2022/10/11 13:03:49;;;;;;;6.55;1.98;;;16.00;99.90;;;;;;4910659;29;20060;-89
2022/10/11 13:06:16;;;;;;;4.05;1.58;;;;;;;;;;4909624;29;20062;-88
2022/10/11 13:08:48;;;;;;;5.97;0.98;;;16.20;99.90;;;;;;4940865;29;20096;-89
2022/10/11 13:11:31;;;;;;;5.50;2.17;;;16.20;99.90;;;;;;4941010;29;20387;-89
2022/10/11 13:14:04;;;;;;;5.18;1.95;;;16.20;99.90;;;;;;4910811;29;20038;-89